Time;durP1;ratioP1;P1;durP2;ratioP2;P2;SDS_P1;SDS_P2;PMS_P1;PMS_P2;Temp;Humidity;BMP_temperature;BMP_pressure;BME280_temperature;BME280_humidity;BME280_pressure;Samples;Min_cycle;Max_cycle;Signal;HPM_P1;HPM_P2
2024/03/21 00:02:46;;;;;;;15.82;7.00;;;;;;;6.30;67.08;100385.59;6252278;28;20072;-74
2024/03/21 00:05:47;;;;;;;17.67;8.50;;;;;;;6.28;67.44;100379.63;6267279;28;20494;-74
2024/03/21 00:08:48;;;;;;;18.90;7.65;;;;;;;6.31;67.11;100380.34;6264099;28;20060;-74
2024/03/21 00:11:49;;;;;;;17.17;8.02;;;;;;;6.30;67.54;100378.69;6253639;28;20429;-74
2024/03/21 00:14:50;;;;;;;16.02;8.38;;;;;;;6.24;68.32;100373.72;6263645;28;20049;-74
2024/03/21 00:17:52;;;;;;;21.35;8.57;;;;;;;6.18;68.31;100371.38;6260460;28;20476;-74
2024/03/21 00:20:53;;;;;;;18.35;9.07;;;;;;;6.10;69.29;100376.84;6260756;28;20081;-74
2024/03/21 00:23:56;;;;;;;16.95;8.32;;;;;;;6.03;69.95;100375.34;6256516;28;20048;-74
2024/03/21 00:26:57;;;;;;;20.05;8.63;;;;;;;6.00;69.44;100378.06;6265292;28;20053;-74
2024/03/21 00:29:58;;;;;;;17.27;8.48;;;;;;;6.00;70.17;100365.97;6249870;28;20061;-74
2024/03/21 00:32:59;;;;;;;15.68;8.23;;;;;;;5.99;71.15;100372.06;6251597;28;20057;-74
2024/03/21 00:36:02;;;;;;;19.15;8.50;;;;;;;6.01;71.03;100377.16;6256870;28;20056;-74
2024/03/21 00:39:03;;;;;;;24.67;7.85;;;;;;;5.94;71.26;100373.94;6250532;28;20060;-74
2024/03/21 00:42:04;;;;;;;18.38;8.10;;;;;;;5.90;71.39;100364.56;6248647;28;20052;-74
2024/03/21 00:45:06;;;;;;;16.40;7.20;;;;;;;5.89;71.12;100360.31;6259680;28;20052;-74
2024/03/21 00:48:09;;;;;;;20.58;8.23;;;;;;;5.85;71.17;100364.75;6258203;28;20489;-74
2024/03/21 00:51:10;;;;;;;17.58;7.07;;;;;;;5.86;71.20;100355.22;6261558;28;20048;-74
2024/03/21 00:54:13;;;;;;;18.52;8.07;;;;;;;5.77;71.70;100353.00;6257745;28;20052;-74
2024/03/21 00:57:14;;;;;;;25.17;9.18;;;;;;;5.75;71.51;100360.81;6253771;28;20053;-74
2024/03/21 01:00:16;;;;;;;19.58;7.65;;;;;;;5.72;71.94;100360.06;6250609;28;20056;-74
2024/03/21 01:03:17;;;;;;;18.00;7.90;;;;;;;5.65;72.22;100357.69;6251765;28;20171;-74
2024/03/21 01:06:18;;;;;;;15.80;7.90;;;;;;;5.60;72.53;100350.97;6256528;28;20061;-74
2024/03/21 01:09:21;;;;;;;23.77;8.48;;;;;;;5.48;72.80;100356.59;6250718;28;20159;-74
2024/03/21 01:12:22;;;;;;;21.50;9.40;;;;;;;5.50;71.76;100355.66;6250334;28;20045;-74
2024/03/21 01:15:23;;;;;;;20.67;9.02;;;;;;;5.53;71.95;100347.78;6247767;28;20050;-74
2024/03/21 01:18:34;;;;;;;23.23;10.18;;;;;;;5.59;72.82;100346.72;6254794;28;20053;-74
2024/03/21 01:21:35;;;;;;;19.10;8.93;;;;;;;5.60;73.82;100346.69;6263356;28;20095;-74
2024/03/21 01:24:37;;;;;;;21.90;9.52;;;;;;;5.59;73.88;100339.78;6247272;28;20049;-74
2024/03/21 01:27:38;;;;;;;20.38;8.60;;;;;;;5.54;73.49;100338.25;6255626;28;20188;-75
2024/03/21 01:30:39;;;;;;;19.45;8.43;;;;;;;5.49;73.79;100338.44;6266257;28;20048;-74
2024/03/21 01:33:44;;;;;;;15.15;8.23;;;;;;;5.48;74.56;100330.72;6261738;28;20053;-74
2024/03/21 01:36:49;;;;;;;18.52;8.43;;;;;;;5.46;75.31;100328.19;6247113;28;20508;-74
2024/03/21 01:39:50;;;;;;;18.15;8.05;;;;;;;5.38;75.72;100325.03;6252638;28;20085;-74
2024/03/21 01:42:52;;;;;;;17.20;8.57;;;;;;;5.39;76.19;100322.38;6247735;28;20049;-74
2024/03/21 01:46:17;;;;;;;15.43;7.47;;;;;;;5.37;76.13;100318.16;6248265;28;20049;-74
2024/03/21 01:49:19;;;;;;;14.73;8.27;;;;;;;5.38;76.13;100317.28;6249444;28;20064;-74
2024/03/21 01:52:21;;;;;;;15.47;8.33;;;;;;;5.44;77.81;100319.66;6256762;28;20115;-74
2024/03/21 01:55:24;;;;;;;15.40;7.43;;;;;;;5.44;76.66;100317.06;6247030;28;20045;-74
2024/03/21 01:58:25;;;;;;;15.30;7.60;;;;;;;5.38;75.58;100312.09;6270792;28;20171;-74
2024/03/21 02:01:28;;;;;;;14.60;7.55;;;;;;;5.29;76.01;100315.84;6254374;28;20049;-74
2024/03/21 02:04:30;;;;;;;17.23;8.07;;;;;;;5.27;76.04;100316.78;6266968;28;20464;-74
2024/03/21 02:07:31;;;;;;;13.60;7.80;;;;;;;5.24;77.08;100313.41;6248560;28;20061;-74
2024/03/21 02:10:34;;;;;;;21.33;8.35;;;;;;;5.17;77.62;100319.72;6257473;28;20056;-74
2024/03/21 02:13:34;;;;;;;15.85;8.15;;;;;;;5.18;76.90;100321.38;6246310;28;20099;-74
2024/03/21 02:16:35;;;;;;;14.55;7.63;;;;;;;5.16;76.88;100314.59;6247697;28;20394;-75
2024/03/21 02:19:36;;;;;;;14.65;7.90;;;;;;;5.11;77.91;100314.75;6262396;28;20107;-74
2024/03/21 02:22:37;;;;;;;13.32;7.88;;;;;;;5.10;78.03;100313.03;6259569;28;20485;-74
2024/03/21 02:25:38;;;;;;;17.45;8.07;;;;;;;5.02;76.68;100315.91;6247696;28;20124;-74
2024/03/21 02:28:39;;;;;;;17.77;8.00;;;;;;;5.01;75.37;100313.38;6258311;28;20049;-74
2024/03/21 02:31:40;;;;;;;15.60;7.47;;;;;;;4.97;75.11;100299.69;6259417;28;20055;-74
2024/03/21 02:34:41;;;;;;;15.13;7.55;;;;;;;4.84;75.16;100304.44;6247343;28;20164;-74
2024/03/21 02:37:42;;;;;;;14.00;6.82;;;;;;;4.84;75.59;100317.38;6245513;28;20091;-74
2024/03/21 02:40:43;;;;;;;19.00;7.85;;;;;;;4.77;75.54;100310.69;6267573;28;20163;-74
2024/03/21 02:43:46;;;;;;;13.77;7.20;;;;;;;4.62;75.07;100314.63;6256023;28;20079;-74
2024/03/21 02:46:47;;;;;;;16.70;7.55;;;;;;;4.55;74.80;100318.31;6260357;28;20096;-76
2024/03/21 02:49:48;;;;;;;16.75;8.38;;;;;;;4.52;75.26;100314.97;6246281;28;20057;-75
2024/03/21 02:52:49;;;;;;;16.20;7.55;;;;;;;4.42;76.32;100315.25;6245763;28;20072;-74
2024/03/21 02:55:50;;;;;;;16.60;8.50;;;;;;;4.37;75.84;100311.97;6247560;28;20129;-75
2024/03/21 02:58:51;;;;;;;15.40;7.50;;;;;;;4.32;75.64;100321.59;6254783;28;20053;-74
2024/03/21 03:01:52;;;;;;;14.93;6.30;;;;;;;4.18;75.32;100313.44;6266119;28;20049;-74
2024/03/21 03:04:53;;;;;;;14.03;7.00;;;;;;;4.10;76.93;100317.97;6252737;28;20056;-74
2024/03/21 03:07:54;;;;;;;11.68;6.90;;;;;;;3.99;77.62;100316.56;6249778;28;20131;-74
2024/03/21 03:10:57;;;;;;;13.98;6.60;;;;;;;4.03;77.79;100318.16;6245789;28;20054;-74
2024/03/21 03:13:58;;;;;;;16.90;7.47;;;;;;;4.01;78.04;100321.69;6251748;28;20168;-74
2024/03/21 03:16:59;;;;;;;14.07;7.57;;;;;;;4.02;77.89;100315.66;6257508;28;20079;-74
2024/03/21 03:20:00;;;;;;;15.15;7.32;;;;;;;3.98;78.34;100316.63;6260054;28;20132;-74
2024/03/21 03:23:01;;;;;;;15.60;7.68;;;;;;;3.90;79.63;100314.25;6253751;28;20053;-74
2024/03/21 03:26:02;;;;;;;17.45;7.82;;;;;;;3.88;79.72;100316.03;6270198;28;20497;-74
2024/03/21 03:29:03;;;;;;;24.85;9.60;;;;;;;3.88;79.81;100317.78;6276000;28;20056;-74
2024/03/21 03:32:04;;;;;;;23.15;10.00;;;;;;;3.88;80.65;100318.63;6274572;28;20041;-74
2024/03/21 03:38:25;;;;;;;26.48;10.60;;;;;;;3.95;80.29;100320.13;6265013;28;20053;-76
2024/03/21 03:41:26;;;;;;;28.02;10.60;;;;;;;3.95;80.21;100317.53;6260975;28;20087;-76
2024/03/21 03:44:29;;;;;;;22.40;10.73;;;;;;;3.95;80.68;100317.53;6257783;28;20044;-76
2024/03/21 03:47:30;;;;;;;21.70;9.68;;;;;;;3.89;81.48;100312.59;6253341;28;20064;-74
2024/03/21 03:50:30;;;;;;;18.30;8.55;;;;;;;3.90;82.49;100316.84;6259397;28;20049;-73
2024/03/21 03:53:31;;;;;;;18.17;8.00;;;;;;;3.86;81.72;100315.25;6273385;28;20084;-74
2024/03/21 03:56:32;;;;;;;18.92;9.50;;;;;;;3.81;81.35;100327.47;6260819;28;20052;-74
2024/03/21 03:59:33;;;;;;;20.08;8.57;;;;;;;3.80;81.67;100328.31;6266317;28;20057;-74
2024/03/21 04:02:35;;;;;;;19.52;8.15;;;;;;;3.79;82.23;100321.50;6267757;28;20443;-75
2024/03/21 04:05:36;;;;;;;19.55;8.68;;;;;;;3.67;82.21;100321.84;6255830;28;20058;-75
2024/03/21 04:08:37;;;;;;;21.13;8.95;;;;;;;3.77;82.48;100325.84;6255245;28;20045;-76
2024/03/21 04:11:38;;;;;;;22.77;9.18;;;;;;;3.76;83.38;100321.56;6251437;28;20608;-76
2024/03/21 04:14:39;;;;;;;17.58;8.35;;;;;;;3.66;83.71;100322.72;6255384;28;20069;-76
2024/03/21 04:17:40;;;;;;;18.13;8.70;;;;;;;3.61;83.66;100335.75;6253813;28;20159;-76
2024/03/21 04:20:41;;;;;;;14.57;7.80;;;;;;;3.60;83.50;100322.00;6250558;28;20049;-76
2024/03/21 04:23:44;;;;;;;17.63;8.32;;;;;;;3.55;83.66;100325.59;6255614;28;20099;-76
2024/03/21 04:26:47;;;;;;;14.10;7.40;;;;;;;3.48;83.43;100331.81;6254752;28;20409;-76
2024/03/21 04:29:48;;;;;;;14.60;7.50;;;;;;;3.49;83.07;100334.34;6249009;28;20049;-76
2024/03/21 04:32:49;;;;;;;19.80;8.32;;;;;;;3.51;83.00;100342.06;6265166;28;20052;-76
2024/03/21 04:35:50;;;;;;;19.05;7.32;;;;;;;3.39;83.47;100338.06;6255617;28;20057;-77
2024/03/21 04:38:51;;;;;;;14.10;7.68;;;;;;;3.45;83.31;100337.91;6256825;28;20398;-76
2024/03/21 04:41:52;;;;;;;17.25;8.38;;;;;;;3.39;83.65;100338.06;6270358;28;20106;-76
2024/03/21 04:44:53;;;;;;;14.93;7.50;;;;;;;3.36;83.93;100343.31;6255924;28;20053;-76
2024/03/21 04:47:53;;;;;;;14.00;7.65;;;;;;;3.36;84.01;100354.47;6248079;28;20053;-76
2024/03/21 04:50:54;;;;;;;16.92;8.00;;;;;;;3.40;83.82;100355.25;6258033;28;20061;-75
2024/03/21 04:53:55;;;;;;;13.38;7.65;;;;;;;3.43;83.62;100350.00;6251046;28;20053;-76
2024/03/21 04:56:59;;;;;;;17.33;7.30;;;;;;;3.45;83.29;100362.84;6248827;28;20054;-76
2024/03/21 04:59:59;;;;;;;16.67;8.23;;;;;;;3.50;83.46;100366.16;6256563;28;20053;-77
2024/03/21 05:03:00;;;;;;;16.77;7.93;;;;;;;3.49;83.07;100364.47;6257085;28;20064;-76
2024/03/21 05:06:01;;;;;;;19.77;8.25;;;;;;;3.54;83.50;100360.00;6253121;28;20497;-76
2024/03/21 05:09:03;;;;;;;16.27;7.22;;;;;;;3.54;83.09;100360.88;6272262;28;20053;-76
2024/03/21 05:12:04;;;;;;;17.90;6.95;;;;;;;3.59;83.39;100365.91;6250291;28;20132;-76
2024/03/21 05:15:05;;;;;;;15.35;7.70;;;;;;;3.59;83.39;100361.59;6279298;28;20429;-77
2024/03/21 05:18:06;;;;;;;13.57;7.03;;;;;;;3.62;83.33;100370.97;6246418;28;20049;-76
2024/03/21 05:21:09;;;;;;;21.08;8.55;;;;;;;3.74;84.25;100373.22;6245304;28;20057;-76
2024/03/21 05:24:10;;;;;;;15.52;7.40;;;;;;;3.76;84.40;100375.78;6271237;28;20140;-76
2024/03/21 05:27:15;;;;;;;18.83;7.57;;;;;;;3.87;83.23;100378.91;6255844;28;20508;-76
2024/03/21 05:30:16;;;;;;;19.08;7.78;;;;;;;3.96;82.54;100377.78;6286679;28;20408;-68
2024/03/21 05:33:17;;;;;;;15.45;7.75;;;;;;;4.03;82.41;100382.72;6257768;28;20498;-69
2024/03/21 05:36:18;;;;;;;15.18;7.60;;;;;;;4.04;81.99;100371.50;6246991;28;20057;-68
2024/03/21 05:39:19;;;;;;;13.52;7.50;;;;;;;4.06;81.34;100380.94;6246765;28;20383;-68
2024/03/21 05:42:20;;;;;;;13.77;7.65;;;;;;;4.06;81.30;100375.78;6245409;28;20460;-68
2024/03/21 05:45:21;;;;;;;15.55;7.20;;;;;;;4.19;79.75;100382.28;6247792;28;20057;-68
2024/03/21 05:48:22;;;;;;;13.63;7.32;;;;;;;4.23;79.83;100382.16;6253986;28;20057;-70
2024/03/21 05:51:23;;;;;;;21.35;8.27;;;;;;;4.29;79.67;100382.88;6247335;28;20409;-70
2024/03/21 05:54:24;;;;;;;15.95;8.75;;;;;;;4.35;79.16;100373.19;6244284;28;20057;-68
2024/03/21 05:57:25;;;;;;;26.00;9.38;;;;;;;4.47;79.81;100373.69;6245418;28;20054;-69
2024/03/21 06:00:26;;;;;;;38.60;10.35;;;;;;;4.59;79.56;100373.31;6244315;28;20049;-68
2024/03/21 06:03:27;;;;;;;23.70;9.50;;;;;;;4.76;78.76;100371.06;6244270;28;20084;-69
2024/03/21 06:06:28;;;;;;;21.45;10.70;;;;;;;4.91;78.41;100381.81;6244161;28;20493;-68
2024/03/21 06:09:31;;;;;;;26.67;11.88;;;;;;;4.88;78.04;100381.88;6244866;28;20053;-68
2024/03/21 06:12:34;;;;;;;36.80;11.18;;;;;;;5.01;77.74;100378.03;6246271;28;20053;-68
2024/03/21 06:15:35;;;;;;;22.50;11.07;;;;;;;5.17;77.90;100371.44;6244851;28;20049;-69
2024/03/21 06:18:39;;;;;;;27.00;10.38;;;;;;;5.33;76.17;100379.50;6245049;28;20128;-69
2024/03/21 06:21:40;;;;;;;30.35;10.95;;;;;;;5.23;76.64;100381.59;6244712;28;20533;-67
2024/03/21 06:24:41;;;;;;;28.60;11.50;;;;;;;5.26;76.80;100385.81;6244806;28;20045;-66
2024/03/21 06:27:43;;;;;;;30.92;11.27;;;;;;;5.19;76.75;100381.75;6244878;28;20494;-66
2024/03/21 06:30:43;;;;;;;22.05;10.43;;;;;;;5.39;76.91;100392.25;6245707;28;20524;-66
2024/03/21 06:33:44;;;;;;;23.33;11.07;;;;;;;5.57;76.14;100380.41;6245884;28;20050;-65
2024/03/21 06:36:45;;;;;;;20.17;10.68;;;;;;;5.71;75.88;100382.53;6245711;28;20045;-68
2024/03/21 06:39:46;;;;;;;23.15;10.73;;;;;;;5.88;75.28;100384.50;6244542;28;20057;-68
2024/03/21 06:42:47;;;;;;;17.27;8.40;;;;;;;6.04;75.01;100384.84;6243912;28;20780;-69
2024/03/21 06:45:55;;;;;;;21.40;9.98;;;;;;;6.21;73.91;100376.44;6245509;28;20049;-68
2024/03/21 06:48:56;;;;;;;18.45;9.68;;;;;;;6.38;73.30;100383.53;6245134;28;20457;-69
2024/03/21 06:51:58;;;;;;;21.55;10.00;;;;;;;6.59;72.41;100380.13;6245435;28;20062;-68
2024/03/21 06:54:58;;;;;;;22.85;9.63;;;;;;;6.70;72.14;100382.31;6265938;28;20050;-68
2024/03/21 06:57:59;;;;;;;24.85;11.15;;;;;;;6.82;71.63;100386.16;6249551;28;20056;-68
2024/03/21 07:01:00;;;;;;;21.27;10.75;;;;;;;6.98;71.03;100382.03;6249132;28;20065;-69
2024/03/21 07:04:03;;;;;;;21.63;9.93;;;;;;;7.20;70.37;100381.97;6249322;28;20147;-69
2024/03/21 07:07:06;;;;;;;17.83;8.63;;;;;;;7.28;71.04;100384.25;6250207;28;20508;-68
2024/03/21 07:10:08;;;;;;;18.88;9.35;;;;;;;7.52;70.07;100390.19;6250148;28;20409;-69
2024/03/21 07:13:09;;;;;;;18.52;9.80;;;;;;;7.67;69.45;100384.31;6249035;28;20055;-68
2024/03/21 07:16:18;;;;;;;16.20;8.98;;;;;;;7.81;68.96;100388.91;6248925;28;20460;-69
2024/03/21 07:19:19;;;;;;;18.35;9.93;;;;;;;8.00;70.26;100386.31;6248707;28;20053;-68
2024/03/21 07:22:20;;;;;;;17.48;9.73;;;;;;;8.30;68.98;100380.66;6250512;28;20563;-68
2024/03/21 07:25:23;;;;;;;21.40;10.23;;;;;;;8.37;68.59;100383.81;6249978;28;20085;-69
2024/03/21 07:28:24;;;;;;;16.60;8.10;;;;;;;8.61;67.68;100385.28;6249777;28;20045;-68
2024/03/21 07:31:26;;;;;;;18.52;9.40;;;;;;;8.81;66.81;100397.34;6249731;28;20068;-68
2024/03/21 07:34:27;;;;;;;18.70;9.70;;;;;;;8.89;66.36;100394.34;6249386;28;20092;-68
2024/03/21 07:37:30;;;;;;;22.30;10.13;;;;;;;9.10;66.61;100396.81;6248573;28;20394;-70
2024/03/21 07:40:32;;;;;;;18.55;9.15;;;;;;;9.30;64.59;100401.88;6249862;28;20133;-70
2024/03/21 07:43:33;;;;;;;19.73;9.10;;;;;;;9.46;64.83;100394.97;6248319;28;20102;-69
2024/03/21 07:46:37;;;;;;;20.67;9.93;;;;;;;9.55;64.74;100396.25;6249481;28;20417;-69
2024/03/21 07:49:38;;;;;;;26.77;10.00;;;;;;;9.83;64.84;100384.44;6249342;28;20046;-69
2024/03/21 07:52:39;;;;;;;17.33;9.45;;;;;;;9.89;63.75;100392.75;6249328;28;20090;-69
2024/03/21 07:55:43;;;;;;;23.40;9.27;;;;;;;10.07;62.21;100392.72;6248015;28;20583;-69
2024/03/21 07:58:46;;;;;;;18.48;9.27;;;;;;;10.09;63.57;100391.69;6248050;28;20182;-69
2024/03/21 08:01:47;;;;;;;20.17;10.10;;;;;;;10.12;61.52;100395.91;6249054;28;20494;-69
2024/03/21 08:04:48;;;;;;;19.15;9.48;;;;;;;10.28;62.89;100396.75;6247806;28;20129;-69
2024/03/21 08:07:49;;;;;;;20.38;10.02;;;;;;;10.55;61.28;100398.81;6249024;28;20136;-68
2024/03/21 08:10:53;;;;;;;19.48;9.93;;;;;;;10.56;59.88;100397.88;6247641;28;20055;-69
2024/03/21 08:13:56;;;;;;;20.00;9.90;;;;;;;10.74;59.31;100405.63;6247863;28;20054;-69
2024/03/21 08:16:59;;;;;;;17.92;9.80;;;;;;;10.88;59.64;100400.47;6248791;28;20179;-70
2024/03/21 08:20:01;;;;;;;15.95;9.60;;;;;;;11.12;59.83;100400.84;6247641;28;20100;-69
2024/03/21 08:23:02;;;;;;;17.35;9.13;;;;;;;11.47;57.56;100406.63;6248593;28;20504;-66
2024/03/21 08:26:04;;;;;;;18.08;8.35;;;;;;;11.44;57.02;100400.72;6248760;28;20111;-66
2024/03/21 08:29:05;;;;;;;16.07;8.90;;;;;;;11.64;56.99;100410.00;6247403;28;20049;-66
2024/03/21 08:32:11;;;;;;;22.70;10.48;;;;;;;11.89;56.61;100401.53;6247309;28;20053;-66
2024/03/21 08:35:15;;;;;;;20.25;9.13;;;;;;;11.93;55.22;100399.59;6248397;28;20050;-66
2024/03/21 08:38:16;;;;;;;16.17;9.18;;;;;;;12.00;54.95;100400.88;6248525;28;20089;-66
2024/03/21 08:41:17;;;;;;;19.45;9.07;;;;;;;12.02;56.22;100399.84;6248162;28;20102;-66
2024/03/21 08:44:17;;;;;;;16.65;8.18;;;;;;;12.43;55.82;100393.81;6248389;28;20059;-66
2024/03/21 08:47:18;;;;;;;19.10;9.05;;;;;;;12.82;54.05;100402.66;6245540;28;20045;-66
2024/03/21 08:50:20;;;;;;;15.90;8.50;;;;;;;12.93;52.81;100391.50;6246609;28;20127;-67
2024/03/21 08:53:23;;;;;;;16.00;8.68;;;;;;;13.03;54.61;100392.59;6246553;28;20406;-66
2024/03/21 08:56:24;;;;;;;17.15;9.50;;;;;;;13.08;53.06;100393.13;6247609;28;20046;-66
2024/03/21 08:59:25;;;;;;;17.65;8.80;;;;;;;13.10;52.26;100390.41;6263086;28;20049;-67
2024/03/21 09:02:26;;;;;;;23.20;9.38;;;;;;;13.20;50.95;100391.47;6247530;28;20085;-66
2024/03/21 09:05:27;;;;;;;18.58;9.68;;;;;;;13.57;52.94;100386.41;6246578;28;20501;-66
2024/03/21 09:08:28;;;;;;;18.08;9.63;;;;;;;14.04;49.95;100378.78;6246316;28;20053;-67
2024/03/21 09:11:30;;;;;;;17.38;9.05;;;;;;;14.09;52.38;100377.53;6247545;28;20059;-66
2024/03/21 09:14:31;;;;;;;25.00;9.75;;;;;;;14.22;51.40;100381.91;6246088;28;20114;-67
2024/03/21 09:17:32;;;;;;;17.10;8.10;;;;;;;14.34;51.17;100377.56;6247103;28;20071;-66
2024/03/21 09:20:35;;;;;;;16.20;9.65;;;;;;;14.23;48.71;100373.94;6245873;28;20052;-67
2024/03/21 09:23:36;;;;;;;21.67;10.27;;;;;;;14.25;49.36;100371.19;6246987;28;20041;-66
2024/03/21 09:26:38;;;;;;;18.23;9.82;;;;;;;14.66;49.13;100373.50;6245967;28;20057;-66
2024/03/21 09:29:41;;;;;;;22.13;9.82;;;;;;;15.06;49.27;100367.06;6245532;28;20054;-68
2024/03/21 09:32:43;;;;;;;24.88;10.30;;;;;;;15.18;47.56;100368.78;6245641;28;20688;-67
2024/03/21 09:35:44;;;;;;;21.50;8.65;;;;;;;15.37;46.49;100367.41;6245416;28;20466;-67
2024/03/21 09:38:45;;;;;;;15.95;8.98;;;;;;;15.49;43.89;100364.66;6247126;28;20057;-67
2024/03/21 09:41:51;;;;;;;15.57;8.75;;;;;;;15.19;45.38;100359.09;6246544;28;20060;-66
2024/03/21 09:44:53;;;;;;;16.63;9.05;;;;;;;15.70;45.29;100356.06;6246894;28;20045;-68
2024/03/21 09:47:56;;;;;;;16.08;8.73;;;;;;;15.69;44.99;100357.03;6245430;28;20100;-67
2024/03/21 09:50:57;;;;;;;17.63;8.68;;;;;;;15.82;43.98;100349.88;6246908;28;20470;-67
2024/03/21 09:53:58;;;;;;;16.30;8.55;;;;;;;15.90;42.96;100354.56;6244966;28;20052;-67
2024/03/21 09:56:59;;;;;;;17.05;9.35;;;;;;;15.39;42.88;100355.81;6245188;28;20049;-67
2024/03/21 10:00:00;;;;;;;17.48;9.07;;;;;;;15.56;42.01;100346.59;6246699;28;20080;-67
2024/03/21 10:03:02;;;;;;;15.00;8.35;;;;;;;15.79;41.92;100346.66;6245108;28;20046;-68
2024/03/21 10:06:06;;;;;;;;;;;;;;;16.12;43.93;100348.41;6245714;28;20056;-67
2024/03/21 10:09:07;;;;;;;17.27;8.20;;;;;;;16.73;42.04;100348.72;6245067;28;20023;-67
2024/03/21 10:12:08;;;;;;;13.70;8.05;;;;;;;16.68;40.56;100340.38;6245005;28;20088;-67
2024/03/21 10:15:13;;;;;;;21.00;8.82;;;;;;;16.72;42.13;100338.31;6246023;28;20045;-67
2024/03/21 10:18:14;;;;;;;15.75;8.13;;;;;;;16.45;42.47;100336.13;6244806;28;20536;-67
2024/03/21 10:21:16;;;;;;;15.63;8.13;;;;;;;16.76;41.00;100338.88;6245933;28;20053;-67
2024/03/21 10:24:18;;;;;;;16.00;8.90;;;;;;;16.48;40.41;100328.81;6246153;28;20046;-67
2024/03/21 10:27:20;;;;;;;13.02;7.80;;;;;;;16.91;39.46;100329.75;6245177;28;20054;-68
2024/03/21 10:30:23;;;;;;;13.85;8.02;;;;;;;17.49;40.38;100319.53;6245771;28;20054;-67
2024/03/21 10:33:26;;;;;;;15.00;8.48;;;;;;;17.44;40.85;100324.41;6245910;28;20046;-67
2024/03/21 10:36:27;;;;;;;19.88;8.05;;;;;;;17.59;39.13;100310.84;6245695;28;20119;-69
2024/03/21 10:39:28;;;;;;;14.93;8.55;;;;;;;17.30;38.73;100314.19;6244791;28;20059;-69
2024/03/21 10:42:35;;;;;;;14.05;8.30;;;;;;;17.29;38.35;100301.94;6244432;28;20042;-68
2024/03/21 10:45:36;;;;;;;18.45;9.25;;;;;;;16.80;38.93;100306.06;6244844;28;20064;-68
2024/03/21 10:48:40;;;;;;;12.60;8.20;;;;;;;16.99;39.59;100310.69;6244527;28;20053;-67
2024/03/21 10:51:45;;;;;;;15.55;8.40;;;;;;;17.25;40.27;100305.81;6244288;28;20529;-68
2024/03/21 10:54:51;;;;;;;18.40;7.95;;;;;;;17.62;38.49;100292.94;6244360;28;20096;-68
2024/03/21 10:57:56;;;;;;;11.18;6.72;;;;;;;17.46;38.37;100288.19;6244436;28;20049;-68
2024/03/21 11:00:57;;;;;;;12.48;6.90;;;;;;;18.10;37.97;100288.81;6244523;28;20065;-68
2024/03/21 11:04:03;;;;;;;11.60;6.57;;;;;;;18.25;35.02;100278.69;6244527;28;20207;-68
2024/03/21 11:07:04;;;;;;;12.38;6.53;;;;;;;18.27;34.24;100287.31;6245533;28;20096;-68
2024/03/21 11:10:08;;;;;;;15.38;6.78;;;;;;;17.99;35.67;100278.34;6244151;28;20495;-68
2024/03/21 11:13:09;;;;;;;14.65;7.10;;;;;;;18.08;36.64;100273.09;6245242;28;20045;-68
2024/03/21 11:16:10;;;;;;;11.70;6.75;;;;;;;18.21;37.10;100274.66;6245343;28;20060;-68
2024/03/21 11:19:13;;;;;;;10.90;6.90;;;;;;;18.49;35.94;100281.75;6244024;28;20057;-68
2024/03/21 11:22:14;;;;;;;14.52;7.30;;;;;;;18.38;34.64;100278.41;6245048;28;20060;-69
2024/03/21 11:25:16;;;;;;;11.23;6.95;;;;;;;18.65;36.79;100272.41;6244555;28;20061;-69
2024/03/21 11:28:16;;;;;;;14.23;7.07;;;;;;;18.72;35.12;100270.91;6244069;28;20095;-69
2024/03/21 11:31:22;;;;;;;14.18;7.45;;;;;;;18.71;35.66;100269.22;6245376;28;20049;-68
2024/03/21 11:34:24;;;;;;;14.85;7.47;;;;;;;18.10;36.32;100270.34;6243778;28;20103;-68
2024/03/21 11:37:25;;;;;;;;;;;;;;;17.85;36.06;100264.59;6245782;28;20053;-69
2024/03/21 11:40:26;;;;;;;12.75;6.97;;;;;;;17.82;36.94;100261.34;6248717;28;19921;-68
2024/03/21 11:43:27;;;;;;;12.60;7.43;;;;;;;17.82;35.79;100266.63;6249736;28;20128;-68
2024/03/21 11:46:28;;;;;;;17.23;7.40;;;;;;;18.21;33.69;100264.09;6249521;28;20050;-68
2024/03/21 11:49:29;;;;;;;14.18;7.10;;;;;;;18.41;35.51;100263.13;6249337;28;20053;-68
2024/03/21 11:52:31;;;;;;;14.50;7.22;;;;;;;18.56;35.68;100252.97;6247984;28;20052;-68
2024/03/21 11:55:32;;;;;;;13.90;7.97;;;;;;;17.93;33.91;100253.31;6249179;28;20057;-68
2024/03/21 11:58:33;;;;;;;16.15;8.27;;;;;;;17.69;34.29;100243.94;6248266;28;20052;-68
2024/03/21 12:01:34;;;;;;;11.57;7.22;;;;;;;18.03;35.68;100245.44;6248028;28;20088;-75
2024/03/21 12:04:34;;;;;;;13.48;7.65;;;;;;;18.36;35.39;100240.72;6248152;28;20088;-75
2024/03/21 12:07:41;;;;;;;13.77;6.75;;;;;;;18.12;35.39;100237.53;6247736;28;20049;-75
2024/03/21 12:10:42;;;;;;;12.23;7.03;;;;;;;18.25;35.82;100239.06;6249333;28;20139;-75
2024/03/21 12:13:44;;;;;;;12.18;7.38;;;;;;;18.35;34.95;100229.34;6248733;28;20041;-75
2024/03/21 12:16:44;;;;;;;20.85;7.25;;;;;;;18.19;35.13;100231.69;6249209;28;20052;-75
2024/03/21 12:19:45;;;;;;;12.93;6.93;;;;;;;17.94;34.55;100233.91;6247508;28;20422;-75
2024/03/21 12:22:46;;;;;;;10.68;5.97;;;;;;;17.56;32.29;100234.59;6248534;28;20414;-68
2024/03/21 12:25:47;;;;;;;13.27;8.37;;;;;;;18.25;34.82;100225.88;6248785;28;20049;-68
2024/03/21 12:28:48;;;;;;;12.45;6.22;;;;;;;18.42;33.72;100227.78;6247326;28;20413;-67
2024/03/21 12:31:48;;;;;;;11.57;5.97;;;;;;;18.52;33.76;100223.34;6247455;28;20056;-68
2024/03/21 12:34:49;;;;;;;12.07;6.63;;;;;;;18.45;33.34;100219.59;6247002;28;20042;-75
2024/03/21 12:37:56;;;;;;;10.00;5.97;;;;;;;17.73;32.96;100218.13;6248541;28;20584;-75
2024/03/21 12:40:59;;;;;;;8.35;5.88;;;;;;;17.65;33.15;100224.09;6247040;28;20412;-75
2024/03/21 12:44:00;;;;;;;13.20;5.95;;;;;;;17.64;34.60;100214.47;6247097;28;20042;-75
2024/03/21 12:47:03;;;;;;;11.00;5.72;;;;;;;17.99;34.54;100209.72;6247038;28;20054;-75
2024/03/21 12:50:05;;;;;;;9.73;5.85;;;;;;;18.20;32.74;100214.88;6247301;28;20486;-69
2024/03/21 12:53:06;;;;;;;12.00;6.30;;;;;;;17.91;34.88;100211.25;6246443;28;20453;-69
2024/03/21 12:56:07;;;;;;;12.10;6.60;;;;;;;18.01;32.72;100221.81;6246492;28;20061;-69
2024/03/21 12:59:10;;;;;;;12.95;6.35;;;;;;;18.13;32.76;100212.78;6248101;28;20049;-68
2024/03/21 13:02:14;;;;;;;10.23;5.55;;;;;;;17.94;31.10;100201.41;6247563;28;20099;-68
2024/03/21 13:05:15;;;;;;;10.02;6.05;;;;;;;17.59;30.54;100205.31;6247765;28;20107;-68
2024/03/21 13:08:16;;;;;;;9.32;5.45;;;;;;;17.76;32.18;100201.19;6247600;28;20045;-68
2024/03/21 13:11:19;;;;;;;16.73;5.80;;;;;;;18.46;33.31;100199.28;6246200;28;20056;-68
2024/03/21 13:14:20;;;;;;;18.63;6.75;;;;;;;18.21;30.70;100193.59;6247113;28;20313;-68
2024/03/21 13:17:21;;;;;;;10.47;5.80;;;;;;;18.50;31.04;100195.41;6246408;28;20046;-67
2024/03/21 13:20:22;;;;;;;11.40;5.88;;;;;;;18.57;31.94;100188.56;6246060;28;20275;-68
2024/03/21 13:23:23;;;;;;;9.75;6.25;;;;;;;17.78;30.20;100183.41;6245878;28;20049;-69
2024/03/21 13:26:24;;;;;;;8.55;5.00;;;;;;;18.23;29.73;100186.38;6245891;28;20413;-69
2024/03/21 13:29:25;;;;;;;9.73;4.68;;;;;;;18.28;28.59;100186.81;6246261;28;20128;-68
2024/03/21 13:32:28;;;;;;;8.02;5.10;;;;;;;18.16;28.80;100181.78;6247055;28;20107;-67
2024/03/21 13:35:29;;;;;;;13.25;5.90;;;;;;;17.79;28.82;100183.28;6246930;28;20383;-68
2024/03/21 13:38:30;;;;;;;9.48;5.88;;;;;;;18.07;31.17;100183.47;6247009;28;20056;-69
2024/03/21 13:41:31;;;;;;;9.90;4.93;;;;;;;18.28;29.56;100173.59;6245443;28;20053;-67
2024/03/21 13:44:32;;;;;;;10.15;4.82;;;;;;;18.26;29.73;100167.63;6246946;28;20132;-68
2024/03/21 13:47:35;;;;;;;8.85;4.75;;;;;;;17.89;31.17;100156.91;6245549;28;20049;-67
2024/03/21 13:50:36;;;;;;;14.70;6.70;;;;;;;17.75;31.71;100160.78;6245223;28;20490;-67
2024/03/21 13:53:39;;;;;;;12.10;5.45;;;;;;;17.88;30.98;100157.91;6246104;28;20045;-68
2024/03/21 13:56:40;;;;;;;10.35;5.82;;;;;;;17.89;30.34;100149.84;6246481;28;20501;-68
2024/03/21 13:59:41;;;;;;;10.10;5.70;;;;;;;17.64;30.59;100150.34;6245511;28;20057;-68
2024/03/21 14:02:42;;;;;;;12.73;5.85;;;;;;;17.25;30.81;100151.06;6246320;28;20092;-67
2024/03/21 14:05:45;;;;;;;11.35;5.78;;;;;;;17.55;31.11;100156.44;6246370;28;20045;-68